sensor_id;sensor_type;location;lat;lon;timestamp;P1;durP1;ratioP1;P2;durP2;ratioP2
13568;SDS011;6856;51.460;7.158;2023-04-24T00:02:36;0.60;;;0.60;;
13568;SDS011;6856;51.460;7.158;2023-04-24T00:05:12;1.03;;;0.60;;
13568;SDS011;6856;51.460;7.158;2023-04-24T00:07:46;0.50;;;0.50;;
13568;SDS011;6856;51.460;7.158;2023-04-24T00:10:20;1.23;;;0.60;;
13568;SDS011;6856;51.460;7.158;2023-04-24T00:12:57;0.47;;;0.47;;
13568;SDS011;6856;51.460;7.158;2023-04-24T00:15:31;0.53;;;0.53;;
13568;SDS011;6856;51.460;7.158;2023-04-24T00:18:06;1.50;;;0.70;;
13568;SDS011;6856;51.460;7.158;2023-04-24T00:20:40;1.17;;;0.70;;
13568;SDS011;6856;51.460;7.158;2023-04-24T00:23:15;0.60;;;0.60;;
13568;SDS011;6856;51.460;7.158;2023-04-24T00:25:49;0.60;;;0.60;;
13568;SDS011;6856;51.460;7.158;2023-04-24T00:28:22;1.33;;;0.60;;
13568;SDS011;6856;51.460;7.158;2023-04-24T00:30:56;0.50;;;0.50;;
13568;SDS011;6856;51.460;7.158;2023-04-24T00:33:32;1.67;;;0.70;;
13568;SDS011;6856;51.460;7.158;2023-04-24T00:36:05;0.53;;;0.47;;
13568;SDS011;6856;51.460;7.158;2023-04-24T00:38:50;0.73;;;0.73;;
13568;SDS011;6856;51.460;7.158;2023-04-24T00:41:24;1.00;;;0.70;;
13568;SDS011;6856;51.460;7.158;2023-04-24T00:43:58;0.63;;;0.60;;
13568;SDS011;6856;51.460;7.158;2023-04-24T00:46:32;1.10;;;0.67;;
13568;SDS011;6856;51.460;7.158;2023-04-24T00:49:14;1.17;;;0.70;;
13568;SDS011;6856;51.460;7.158;2023-04-24T00:51:48;1.23;;;0.70;;
13568;SDS011;6856;51.460;7.158;2023-04-24T00:54:22;1.00;;;0.70;;
13568;SDS011;6856;51.460;7.158;2023-04-24T00:56:56;1.10;;;0.87;;
13568;SDS011;6856;51.460;7.158;2023-04-24T00:59:32;2.10;;;0.87;;
13568;SDS011;6856;51.460;7.158;2023-04-24T01:02:08;1.07;;;0.80;;
13568;SDS011;6856;51.460;7.158;2023-04-24T01:04:45;0.80;;;0.80;;
13568;SDS011;6856;51.460;7.158;2023-04-24T01:07:19;2.43;;;1.10;;
13568;SDS011;6856;51.460;7.158;2023-04-24T01:09:55;0.97;;;0.70;;
13568;SDS011;6856;51.460;7.158;2023-04-24T01:12:31;1.37;;;1.00;;
13568;SDS011;6856;51.460;7.158;2023-04-24T01:15:06;1.37;;;0.93;;
13568;SDS011;6856;51.460;7.158;2023-04-24T01:17:41;2.13;;;1.17;;
13568;SDS011;6856;51.460;7.158;2023-04-24T01:20:16;0.93;;;0.90;;
13568;SDS011;6856;51.460;7.158;2023-04-24T01:22:58;1.83;;;1.00;;
13568;SDS011;6856;51.460;7.158;2023-04-24T01:25:32;1.17;;;1.07;;
13568;SDS011;6856;51.460;7.158;2023-04-24T01:28:07;1.03;;;0.93;;
13568;SDS011;6856;51.460;7.158;2023-04-24T01:30:41;1.90;;;1.17;;
13568;SDS011;6856;51.460;7.158;2023-04-24T01:33:15;1.83;;;1.07;;
13568;SDS011;6856;51.460;7.158;2023-04-24T01:35:50;2.00;;;0.93;;
13568;SDS011;6856;51.460;7.158;2023-04-24T01:38:26;2.47;;;1.30;;
13568;SDS011;6856;51.460;7.158;2023-04-24T01:41:00;2.37;;;1.50;;
13568;SDS011;6856;51.460;7.158;2023-04-24T01:43:34;1.77;;;1.30;;
13568;SDS011;6856;51.460;7.158;2023-04-24T01:46:19;1.67;;;1.30;;
13568;SDS011;6856;51.460;7.158;2023-04-24T01:48:53;2.27;;;1.47;;
13568;SDS011;6856;51.460;7.158;2023-04-24T01:51:27;1.63;;;1.40;;
13568;SDS011;6856;51.460;7.158;2023-04-24T01:54:03;2.77;;;1.50;;
13568;SDS011;6856;51.460;7.158;2023-04-24T01:56:38;2.07;;;1.60;;
13568;SDS011;6856;51.460;7.158;2023-04-24T01:59:14;2.43;;;1.50;;
13568;SDS011;6856;51.460;7.158;2023-04-24T02:01:51;3.33;;;1.40;;
13568;SDS011;6856;51.460;7.158;2023-04-24T02:04:27;1.50;;;1.40;;
13568;SDS011;6856;51.460;7.158;2023-04-24T02:07:04;2.20;;;1.23;;
13568;SDS011;6856;51.460;7.158;2023-04-24T02:09:39;5.27;;;1.80;;
13568;SDS011;6856;51.460;7.158;2023-04-24T02:12:15;2.67;;;1.73;;
13568;SDS011;6856;51.460;7.158;2023-04-24T02:14:49;2.10;;;1.60;;
13568;SDS011;6856;51.460;7.158;2023-04-24T02:17:25;1.80;;;1.53;;
13568;SDS011;6856;51.460;7.158;2023-04-24T02:19:59;2.87;;;2.20;;
13568;SDS011;6856;51.460;7.158;2023-04-24T02:22:33;3.93;;;2.73;;
13568;SDS011;6856;51.460;7.158;2023-04-24T02:25:09;4.60;;;2.23;;
13568;SDS011;6856;51.460;7.158;2023-04-24T02:27:43;3.63;;;2.83;;
13568;SDS011;6856;51.460;7.158;2023-04-24T02:30:17;5.17;;;3.27;;
13568;SDS011;6856;51.460;7.158;2023-04-24T02:32:51;3.77;;;3.03;;
13568;SDS011;6856;51.460;7.158;2023-04-24T02:35:25;3.57;;;2.83;;
13568;SDS011;6856;51.460;7.158;2023-04-24T02:37:59;4.17;;;3.17;;
13568;SDS011;6856;51.460;7.158;2023-04-24T02:40:36;4.40;;;3.47;;
13568;SDS011;6856;51.460;7.158;2023-04-24T02:43:12;4.90;;;3.77;;
13568;SDS011;6856;51.460;7.158;2023-04-24T02:45:45;4.10;;;3.37;;
13568;SDS011;6856;51.460;7.158;2023-04-24T02:48:20;5.40;;;3.77;;
13568;SDS011;6856;51.460;7.158;2023-04-24T02:50:55;4.77;;;3.87;;
13568;SDS011;6856;51.460;7.158;2023-04-24T02:53:29;6.00;;;3.63;;
13568;SDS011;6856;51.460;7.158;2023-04-24T02:56:05;6.17;;;4.00;;
13568;SDS011;6856;51.460;7.158;2023-04-24T02:58:38;5.87;;;3.83;;
13568;SDS011;6856;51.460;7.158;2023-04-24T03:01:13;5.43;;;4.23;;
13568;SDS011;6856;51.460;7.158;2023-04-24T03:03:47;5.33;;;4.13;;
13568;SDS011;6856;51.460;7.158;2023-04-24T03:06:22;5.73;;;4.23;;
13568;SDS011;6856;51.460;7.158;2023-04-24T03:09:00;5.20;;;4.60;;
13568;SDS011;6856;51.460;7.158;2023-04-24T03:11:36;5.77;;;4.67;;
13568;SDS011;6856;51.460;7.158;2023-04-24T03:14:10;7.30;;;4.60;;
13568;SDS011;6856;51.460;7.158;2023-04-24T03:16:47;5.43;;;4.03;;
13568;SDS011;6856;51.460;7.158;2023-04-24T03:19:21;7.70;;;4.50;;
13568;SDS011;6856;51.460;7.158;2023-04-24T03:21:55;6.87;;;4.77;;
13568;SDS011;6856;51.460;7.158;2023-04-24T03:24:28;6.10;;;4.53;;
13568;SDS011;6856;51.460;7.158;2023-04-24T03:27:04;6.80;;;5.20;;
13568;SDS011;6856;51.460;7.158;2023-04-24T03:29:40;7.13;;;4.57;;
13568;SDS011;6856;51.460;7.158;2023-04-24T03:32:15;5.67;;;3.83;;
13568;SDS011;6856;51.460;7.158;2023-04-24T03:34:54;5.67;;;4.57;;
13568;SDS011;6856;51.460;7.158;2023-04-24T03:37:28;6.60;;;5.07;;
13568;SDS011;6856;51.460;7.158;2023-04-24T03:40:03;6.97;;;4.40;;
13568;SDS011;6856;51.460;7.158;2023-04-24T03:42:42;7.73;;;5.27;;
13568;SDS011;6856;51.460;7.158;2023-04-24T03:45:16;4.97;;;4.37;;
13568;SDS011;6856;51.460;7.158;2023-04-24T03:47:50;6.73;;;5.10;;
13568;SDS011;6856;51.460;7.158;2023-04-24T03:50:24;6.30;;;5.33;;
13568;SDS011;6856;51.460;7.158;2023-04-24T03:52:58;7.40;;;5.03;;
13568;SDS011;6856;51.460;7.158;2023-04-24T03:55:32;6.43;;;4.77;;
13568;SDS011;6856;51.460;7.158;2023-04-24T03:58:07;7.10;;;4.70;;
13568;SDS011;6856;51.460;7.158;2023-04-24T04:00:44;7.13;;;4.90;;
13568;SDS011;6856;51.460;7.158;2023-04-24T04:03:22;5.30;;;4.50;;
13568;SDS011;6856;51.460;7.158;2023-04-24T04:05:57;6.60;;;4.87;;
13568;SDS011;6856;51.460;7.158;2023-04-24T04:08:31;5.93;;;4.47;;
13568;SDS011;6856;51.460;7.158;2023-04-24T04:11:05;7.53;;;5.03;;
13568;SDS011;6856;51.460;7.158;2023-04-24T04:13:40;7.60;;;5.47;;
13568;SDS011;6856;51.460;7.158;2023-04-24T04:16:14;8.30;;;5.60;;
13568;SDS011;6856;51.460;7.158;2023-04-24T04:18:49;7.27;;;5.30;;
13568;SDS011;6856;51.460;7.158;2023-04-24T04:21:23;7.27;;;4.77;;
13568;SDS011;6856;51.460;7.158;2023-04-24T04:23:58;8.40;;;4.97;;
13568;SDS011;6856;51.460;7.158;2023-04-24T04:26:36;6.90;;;5.13;;
13568;SDS011;6856;51.460;7.158;2023-04-24T04:29:13;7.40;;;5.40;;
13568;SDS011;6856;51.460;7.158;2023-04-24T04:31:50;6.73;;;4.77;;
13568;SDS011;6856;51.460;7.158;2023-04-24T04:34:26;7.00;;;4.90;;
13568;SDS011;6856;51.460;7.158;2023-04-24T04:37:00;6.13;;;4.63;;
13568;SDS011;6856;51.460;7.158;2023-04-24T04:39:35;7.67;;;5.33;;
13568;SDS011;6856;51.460;7.158;2023-04-24T04:42:09;6.10;;;4.57;;
13568;SDS011;6856;51.460;7.158;2023-04-24T04:44:44;5.97;;;5.20;;
13568;SDS011;6856;51.460;7.158;2023-04-24T04:47:18;7.17;;;5.10;;
13568;SDS011;6856;51.460;7.158;2023-04-24T04:49:56;5.97;;;4.93;;
13568;SDS011;6856;51.460;7.158;2023-04-24T04:52:30;6.07;;;4.53;;
13568;SDS011;6856;51.460;7.158;2023-04-24T04:55:06;6.10;;;4.90;;
13568;SDS011;6856;51.460;7.158;2023-04-24T04:57:42;5.03;;;4.53;;
13568;SDS011;6856;51.460;7.158;2023-04-24T05:00:18;5.87;;;4.77;;
13568;SDS011;6856;51.460;7.158;2023-04-24T05:02:52;6.23;;;4.40;;
13568;SDS011;6856;51.460;7.158;2023-04-24T05:05:39;6.20;;;4.87;;
13568;SDS011;6856;51.460;7.158;2023-04-24T05:08:18;6.80;;;4.77;;
13568;SDS011;6856;51.460;7.158;2023-04-24T05:10:58;6.07;;;4.57;;
13568;SDS011;6856;51.460;7.158;2023-04-24T05:13:31;7.93;;;4.77;;
13568;SDS011;6856;51.460;7.158;2023-04-24T05:16:12;6.73;;;4.77;;
13568;SDS011;6856;51.460;7.158;2023-04-24T05:18:46;4.70;;;3.60;;
13568;SDS011;6856;51.460;7.158;2023-04-24T05:21:20;5.43;;;4.30;;
13568;SDS011;6856;51.460;7.158;2023-04-24T05:23:54;4.87;;;3.93;;
13568;SDS011;6856;51.460;7.158;2023-04-24T05:26:34;6.93;;;4.40;;
13568;SDS011;6856;51.460;7.158;2023-04-24T05:29:08;5.40;;;4.10;;
13568;SDS011;6856;51.460;7.158;2023-04-24T05:31:45;6.77;;;4.57;;
13568;SDS011;6856;51.460;7.158;2023-04-24T05:34:24;4.83;;;3.87;;
13568;SDS011;6856;51.460;7.158;2023-04-24T05:36:59;5.53;;;4.00;;
13568;SDS011;6856;51.460;7.158;2023-04-24T05:39:32;4.90;;;3.53;;
13568;SDS011;6856;51.460;7.158;2023-04-24T05:42:06;5.47;;;4.20;;
13568;SDS011;6856;51.460;7.158;2023-04-24T05:44:40;5.23;;;4.00;;
13568;SDS011;6856;51.460;7.158;2023-04-24T05:47:16;5.73;;;4.10;;
13568;SDS011;6856;51.460;7.158;2023-04-24T05:49:50;6.27;;;4.50;;
13568;SDS011;6856;51.460;7.158;2023-04-24T05:52:31;5.87;;;4.20;;
13568;SDS011;6856;51.460;7.158;2023-04-24T05:55:05;5.70;;;4.60;;
13568;SDS011;6856;51.460;7.158;2023-04-24T05:57:40;6.17;;;4.17;;
13568;SDS011;6856;51.460;7.158;2023-04-24T06:00:16;6.23;;;4.33;;
13568;SDS011;6856;51.460;7.158;2023-04-24T06:02:52;5.60;;;4.50;;
13568;SDS011;6856;51.460;7.158;2023-04-24T06:05:27;5.60;;;4.63;;
13568;SDS011;6856;51.460;7.158;2023-04-24T06:08:02;5.13;;;3.80;;
13568;SDS011;6856;51.460;7.158;2023-04-24T06:10:36;5.87;;;4.27;;
13568;SDS011;6856;51.460;7.158;2023-04-24T06:13:10;5.37;;;3.87;;
13568;SDS011;6856;51.460;7.158;2023-04-24T06:15:44;4.97;;;4.00;;
13568;SDS011;6856;51.460;7.158;2023-04-24T06:18:29;4.90;;;3.70;;
13568;SDS011;6856;51.460;7.158;2023-04-24T06:21:04;5.57;;;3.47;;
13568;SDS011;6856;51.460;7.158;2023-04-24T06:23:38;5.10;;;3.87;;
13568;SDS011;6856;51.460;7.158;2023-04-24T06:26:12;4.73;;;3.43;;
13568;SDS011;6856;51.460;7.158;2023-04-24T06:28:46;5.67;;;3.63;;
13568;SDS011;6856;51.460;7.158;2023-04-24T06:31:22;5.00;;;3.90;;
13568;SDS011;6856;51.460;7.158;2023-04-24T06:34:03;4.77;;;3.60;;
13568;SDS011;6856;51.460;7.158;2023-04-24T06:36:37;4.17;;;3.20;;
13568;SDS011;6856;51.460;7.158;2023-04-24T06:39:11;5.30;;;3.73;;
13568;SDS011;6856;51.460;7.158;2023-04-24T06:41:45;4.87;;;3.53;;
13568;SDS011;6856;51.460;7.158;2023-04-24T06:44:19;4.10;;;3.23;;
13568;SDS011;6856;51.460;7.158;2023-04-24T06:46:53;3.93;;;3.23;;
13568;SDS011;6856;51.460;7.158;2023-04-24T06:49:28;3.83;;;3.13;;
13568;SDS011;6856;51.460;7.158;2023-04-24T06:52:02;4.53;;;3.33;;
13568;SDS011;6856;51.460;7.158;2023-04-24T06:54:41;4.60;;;3.23;;
13568;SDS011;6856;51.460;7.158;2023-04-24T06:57:16;5.53;;;2.93;;
13568;SDS011;6856;51.460;7.158;2023-04-24T06:59:50;4.23;;;3.40;;
13568;SDS011;6856;51.460;7.158;2023-04-24T07:02:24;4.13;;;3.17;;
13568;SDS011;6856;51.460;7.158;2023-04-24T07:05:00;4.10;;;2.90;;
13568;SDS011;6856;51.460;7.158;2023-04-24T07:07:34;3.43;;;2.80;;
13568;SDS011;6856;51.460;7.158;2023-04-24T07:10:09;3.53;;;2.80;;
13568;SDS011;6856;51.460;7.158;2023-04-24T07:12:42;3.13;;;2.40;;
13568;SDS011;6856;51.460;7.158;2023-04-24T07:15:17;3.97;;;2.43;;
13568;SDS011;6856;51.460;7.158;2023-04-24T07:17:51;3.17;;;2.43;;
13568;SDS011;6856;51.460;7.158;2023-04-24T07:20:26;2.30;;;1.83;;
13568;SDS011;6856;51.460;7.158;2023-04-24T07:23:00;3.70;;;2.13;;
13568;SDS011;6856;51.460;7.158;2023-04-24T07:25:35;2.43;;;2.00;;
13568;SDS011;6856;51.460;7.158;2023-04-24T07:28:09;2.40;;;1.90;;
13568;SDS011;6856;51.460;7.158;2023-04-24T07:30:46;1.83;;;1.43;;
13568;SDS011;6856;51.460;7.158;2023-04-24T07:33:20;3.07;;;1.70;;
13568;SDS011;6856;51.460;7.158;2023-04-24T07:35:55;1.77;;;1.40;;
13568;SDS011;6856;51.460;7.158;2023-04-24T07:38:29;1.70;;;1.40;;
13568;SDS011;6856;51.460;7.158;2023-04-24T07:41:05;2.20;;;1.70;;
13568;SDS011;6856;51.460;7.158;2023-04-24T07:43:41;1.43;;;1.30;;
13568;SDS011;6856;51.460;7.158;2023-04-24T07:46:15;2.43;;;1.50;;
13568;SDS011;6856;51.460;7.158;2023-04-24T07:48:52;1.90;;;1.33;;
13568;SDS011;6856;51.460;7.158;2023-04-24T07:51:44;1.43;;;1.20;;
13568;SDS011;6856;51.460;7.158;2023-04-24T07:54:18;1.87;;;1.27;;
13568;SDS011;6856;51.460;7.158;2023-04-24T07:56:52;1.27;;;1.17;;
13568;SDS011;6856;51.460;7.158;2023-04-24T07:59:26;1.00;;;0.90;;
13568;SDS011;6856;51.460;7.158;2023-04-24T08:01:59;1.27;;;0.80;;
13568;SDS011;6856;51.460;7.158;2023-04-24T08:04:33;0.90;;;0.73;;
13568;SDS011;6856;51.460;7.158;2023-04-24T08:07:09;0.50;;;0.50;;
13568;SDS011;6856;51.460;7.158;2023-04-24T08:09:44;0.50;;;0.43;;
13568;SDS011;6856;51.460;7.158;2023-04-24T08:12:18;0.40;;;0.40;;
13568;SDS011;6856;51.460;7.158;2023-04-24T08:14:52;0.50;;;0.50;;
13568;SDS011;6856;51.460;7.158;2023-04-24T08:17:26;0.50;;;0.50;;
13568;SDS011;6856;51.460;7.158;2023-04-24T08:20:03;0.40;;;0.40;;
13568;SDS011;6856;51.460;7.158;2023-04-24T08:22:43;0.67;;;0.53;;
13568;SDS011;6856;51.460;7.158;2023-04-24T08:25:18;0.47;;;0.47;;
13568;SDS011;6856;51.460;7.158;2023-04-24T08:27:54;0.40;;;0.40;;
13568;SDS011;6856;51.460;7.158;2023-04-24T08:30:28;0.73;;;0.50;;
13568;SDS011;6856;51.460;7.158;2023-04-24T08:33:04;0.50;;;0.50;;
13568;SDS011;6856;51.460;7.158;2023-04-24T08:35:39;0.40;;;0.40;;
13568;SDS011;6856;51.460;7.158;2023-04-24T08:38:14;0.50;;;0.50;;
13568;SDS011;6856;51.460;7.158;2023-04-24T08:40:48;0.60;;;0.60;;
13568;SDS011;6856;51.460;7.158;2023-04-24T08:43:23;0.80;;;0.60;;
13568;SDS011;6856;51.460;7.158;2023-04-24T08:45:59;2.07;;;0.80;;
13568;SDS011;6856;51.460;7.158;2023-04-24T08:48:43;0.67;;;0.40;;
13568;SDS011;6856;51.460;7.158;2023-04-24T08:51:18;1.40;;;0.60;;
13568;SDS011;6856;51.460;7.158;2023-04-24T08:53:54;1.00;;;0.50;;
13568;SDS011;6856;51.460;7.158;2023-04-24T08:56:37;1.07;;;0.77;;
13568;SDS011;6856;51.460;7.158;2023-04-24T08:59:13;0.50;;;0.50;;
13568;SDS011;6856;51.460;7.158;2023-04-24T09:01:48;0.90;;;0.60;;
13568;SDS011;6856;51.460;7.158;2023-04-24T09:04:28;1.17;;;0.80;;
13568;SDS011;6856;51.460;7.158;2023-04-24T09:07:04;0.57;;;0.57;;
13568;SDS011;6856;51.460;7.158;2023-04-24T09:09:42;1.10;;;0.70;;
13568;SDS011;6856;51.460;7.158;2023-04-24T09:12:19;0.87;;;0.77;;
13568;SDS011;6856;51.460;7.158;2023-04-24T09:14:54;0.97;;;0.87;;
13568;SDS011;6856;51.460;7.158;2023-04-24T09:17:32;1.57;;;0.90;;
13568;SDS011;6856;51.460;7.158;2023-04-24T09:20:22;0.97;;;0.80;;
13568;SDS011;6856;51.460;7.158;2023-04-24T09:22:56;1.63;;;1.03;;
13568;SDS011;6856;51.460;7.158;2023-04-24T09:25:32;0.80;;;0.80;;
13568;SDS011;6856;51.460;7.158;2023-04-24T09:28:08;1.47;;;0.80;;
13568;SDS011;6856;51.460;7.158;2023-04-24T09:30:42;0.93;;;0.80;;
13568;SDS011;6856;51.460;7.158;2023-04-24T09:33:16;1.30;;;0.90;;
13568;SDS011;6856;51.460;7.158;2023-04-24T09:35:52;1.63;;;0.90;;
13568;SDS011;6856;51.460;7.158;2023-04-24T09:38:33;2.60;;;1.10;;
13568;SDS011;6856;51.460;7.158;2023-04-24T09:41:13;1.43;;;0.90;;
13568;SDS011;6856;51.460;7.158;2023-04-24T09:43:47;1.30;;;1.20;;
13568;SDS011;6856;51.460;7.158;2023-04-24T09:46:21;2.00;;;1.70;;
13568;SDS011;6856;51.460;7.158;2023-04-24T09:49:07;2.30;;;1.73;;
13568;SDS011;6856;51.460;7.158;2023-04-24T09:51:43;2.93;;;1.70;;
13568;SDS011;6856;51.460;7.158;2023-04-24T09:54:17;2.47;;;1.80;;
13568;SDS011;6856;51.460;7.158;2023-04-24T09:56:55;2.47;;;1.57;;
13568;SDS011;6856;51.460;7.158;2023-04-24T09:59:31;2.10;;;1.60;;
13568;SDS011;6856;51.460;7.158;2023-04-24T10:02:16;4.97;;;2.00;;
13568;SDS011;6856;51.460;7.158;2023-04-24T10:04:54;3.40;;;2.00;;
13568;SDS011;6856;51.460;7.158;2023-04-24T10:07:32;1.93;;;1.60;;
13568;SDS011;6856;51.460;7.158;2023-04-24T10:10:06;2.50;;;1.67;;
13568;SDS011;6856;51.460;7.158;2023-04-24T10:12:53;2.17;;;1.67;;
13568;SDS011;6856;51.460;7.158;2023-04-24T10:15:27;2.13;;;1.57;;
13568;SDS011;6856;51.460;7.158;2023-04-24T10:18:01;1.93;;;1.73;;
13568;SDS011;6856;51.460;7.158;2023-04-24T10:20:38;2.70;;;1.90;;
13568;SDS011;6856;51.460;7.158;2023-04-24T10:23:13;2.33;;;1.77;;
13568;SDS011;6856;51.460;7.158;2023-04-24T10:25:48;3.67;;;2.20;;
13568;SDS011;6856;51.460;7.158;2023-04-24T10:28:26;3.30;;;2.10;;
13568;SDS011;6856;51.460;7.158;2023-04-24T10:31:03;3.30;;;2.17;;
13568;SDS011;6856;51.460;7.158;2023-04-24T10:33:37;3.93;;;2.30;;
13568;SDS011;6856;51.460;7.158;2023-04-24T10:36:14;3.90;;;2.47;;
13568;SDS011;6856;51.460;7.158;2023-04-24T10:38:49;3.03;;;2.47;;
13568;SDS011;6856;51.460;7.158;2023-04-24T10:41:26;3.83;;;2.53;;
13568;SDS011;6856;51.460;7.158;2023-04-24T10:44:07;4.27;;;2.67;;
13568;SDS011;6856;51.460;7.158;2023-04-24T10:46:46;4.70;;;2.60;;
13568;SDS011;6856;51.460;7.158;2023-04-24T10:49:29;5.30;;;2.83;;
13568;SDS011;6856;51.460;7.158;2023-04-24T10:52:04;5.13;;;2.90;;
13568;SDS011;6856;51.460;7.158;2023-04-24T10:54:41;4.17;;;2.93;;
13568;SDS011;6856;51.460;7.158;2023-04-24T10:57:27;4.27;;;2.60;;
13568;SDS011;6856;51.460;7.158;2023-04-24T11:00:18;3.80;;;2.47;;
13568;SDS011;6856;51.460;7.158;2023-04-24T11:02:53;5.30;;;2.90;;
13568;SDS011;6856;51.460;7.158;2023-04-24T11:08:25;6.50;;;2.87;;
13568;SDS011;6856;51.460;7.158;2023-04-24T11:11:10;6.27;;;2.53;;
13568;SDS011;6856;51.460;7.158;2023-04-24T11:14:02;4.97;;;2.53;;
13568;SDS011;6856;51.460;7.158;2023-04-24T11:16:45;4.87;;;3.00;;
13568;SDS011;6856;51.460;7.158;2023-04-24T11:19:25;6.33;;;2.83;;
13568;SDS011;6856;51.460;7.158;2023-04-24T11:22:02;3.83;;;2.40;;
13568;SDS011;6856;51.460;7.158;2023-04-24T11:24:38;5.87;;;2.63;;
13568;SDS011;6856;51.460;7.158;2023-04-24T11:27:23;6.10;;;3.07;;
13568;SDS011;6856;51.460;7.158;2023-04-24T11:29:58;5.07;;;2.60;;
13568;SDS011;6856;51.460;7.158;2023-04-24T11:32:37;5.43;;;2.90;;
13568;SDS011;6856;51.460;7.158;2023-04-24T11:35:13;6.23;;;3.07;;
13568;SDS011;6856;51.460;7.158;2023-04-24T11:37:50;6.93;;;3.43;;
13568;SDS011;6856;51.460;7.158;2023-04-24T11:40:46;7.00;;;3.07;;
13568;SDS011;6856;51.460;7.158;2023-04-24T11:43:20;5.57;;;3.33;;
13568;SDS011;6856;51.460;7.158;2023-04-24T11:45:55;5.03;;;3.00;;
13568;SDS011;6856;51.460;7.158;2023-04-24T11:48:35;6.73;;;3.53;;
13568;SDS011;6856;51.460;7.158;2023-04-24T11:51:11;6.20;;;3.30;;
13568;SDS011;6856;51.460;7.158;2023-04-24T11:53:45;6.23;;;3.63;;
13568;SDS011;6856;51.460;7.158;2023-04-24T11:56:28;5.73;;;3.40;;
13568;SDS011;6856;51.460;7.158;2023-04-24T11:59:04;6.00;;;2.50;;
13568;SDS011;6856;51.460;7.158;2023-04-24T12:01:42;5.87;;;2.80;;
13568;SDS011;6856;51.460;7.158;2023-04-24T12:04:19;4.87;;;2.40;;
13568;SDS011;6856;51.460;7.158;2023-04-24T12:06:58;5.63;;;2.67;;
13568;SDS011;6856;51.460;7.158;2023-04-24T12:09:42;3.20;;;2.00;;
13568;SDS011;6856;51.460;7.158;2023-04-24T12:12:18;6.70;;;2.70;;
13568;SDS011;6856;51.460;7.158;2023-04-24T12:14:52;4.10;;;2.40;;
13568;SDS011;6856;51.460;7.158;2023-04-24T12:17:29;4.03;;;2.50;;
13568;SDS011;6856;51.460;7.158;2023-04-24T12:20:13;5.80;;;2.60;;
13568;SDS011;6856;51.460;7.158;2023-04-24T12:22:51;3.77;;;2.30;;
13568;SDS011;6856;51.460;7.158;2023-04-24T12:25:28;4.97;;;2.20;;
13568;SDS011;6856;51.460;7.158;2023-04-24T12:28:10;5.30;;;2.57;;
13568;SDS011;6856;51.460;7.158;2023-04-24T12:30:46;4.27;;;2.57;;
13568;SDS011;6856;51.460;7.158;2023-04-24T12:33:23;5.50;;;2.60;;
13568;SDS011;6856;51.460;7.158;2023-04-24T12:35:58;4.90;;;2.30;;
13568;SDS011;6856;51.460;7.158;2023-04-24T12:38:33;4.90;;;2.70;;
13568;SDS011;6856;51.460;7.158;2023-04-24T12:41:12;5.57;;;2.27;;
13568;SDS011;6856;51.460;7.158;2023-04-24T12:43:51;4.47;;;2.50;;
13568;SDS011;6856;51.460;7.158;2023-04-24T12:46:26;5.77;;;2.73;;
13568;SDS011;6856;51.460;7.158;2023-04-24T12:49:01;5.07;;;2.60;;
13568;SDS011;6856;51.460;7.158;2023-04-24T12:51:36;5.23;;;2.93;;
13568;SDS011;6856;51.460;7.158;2023-04-24T12:54:09;5.33;;;2.60;;
13568;SDS011;6856;51.460;7.158;2023-04-24T12:56:43;4.33;;;2.30;;
13568;SDS011;6856;51.460;7.158;2023-04-24T12:59:17;4.90;;;1.83;;
13568;SDS011;6856;51.460;7.158;2023-04-24T13:01:51;2.90;;;1.43;;
13568;SDS011;6856;51.460;7.158;2023-04-24T13:04:25;4.57;;;1.73;;
13568;SDS011;6856;51.460;7.158;2023-04-24T13:07:01;3.57;;;2.20;;
13568;SDS011;6856;51.460;7.158;2023-04-24T13:09:34;2.67;;;1.70;;
13568;SDS011;6856;51.460;7.158;2023-04-24T13:12:08;2.03;;;1.43;;
13568;SDS011;6856;51.460;7.158;2023-04-24T13:14:43;3.40;;;1.77;;
13568;SDS011;6856;51.460;7.158;2023-04-24T13:17:17;3.77;;;1.60;;
13568;SDS011;6856;51.460;7.158;2023-04-24T13:19:53;5.83;;;2.20;;
13568;SDS011;6856;51.460;7.158;2023-04-24T13:22:30;3.30;;;1.70;;
13568;SDS011;6856;51.460;7.158;2023-04-24T13:25:05;4.03;;;2.53;;
13568;SDS011;6856;51.460;7.158;2023-04-24T13:27:40;2.30;;;1.70;;
13568;SDS011;6856;51.460;7.158;2023-04-24T13:30:14;2.60;;;1.33;;
13568;SDS011;6856;51.460;7.158;2023-04-24T13:32:48;2.40;;;1.50;;
13568;SDS011;6856;51.460;7.158;2023-04-24T13:35:22;3.37;;;1.40;;
13568;SDS011;6856;51.460;7.158;2023-04-24T13:38:00;2.43;;;1.33;;
13568;SDS011;6856;51.460;7.158;2023-04-24T13:40:37;2.07;;;1.20;;
13568;SDS011;6856;51.460;7.158;2023-04-24T13:43:11;2.83;;;1.20;;
13568;SDS011;6856;51.460;7.158;2023-04-24T13:45:45;2.17;;;1.03;;
13568;SDS011;6856;51.460;7.158;2023-04-24T13:48:18;1.77;;;1.20;;
13568;SDS011;6856;51.460;7.158;2023-04-24T13:50:53;1.53;;;1.23;;
13568;SDS011;6856;51.460;7.158;2023-04-24T13:53:28;2.33;;;1.30;;
13568;SDS011;6856;51.460;7.158;2023-04-24T13:56:02;4.10;;;1.20;;
13568;SDS011;6856;51.460;7.158;2023-04-24T13:58:37;2.43;;;1.30;;
13568;SDS011;6856;51.460;7.158;2023-04-24T14:01:12;1.97;;;0.97;;
13568;SDS011;6856;51.460;7.158;2023-04-24T14:03:47;1.40;;;0.90;;
13568;SDS011;6856;51.460;7.158;2023-04-24T14:06:22;2.50;;;1.23;;
13568;SDS011;6856;51.460;7.158;2023-04-24T14:08:57;1.27;;;0.90;;
13568;SDS011;6856;51.460;7.158;2023-04-24T14:11:32;2.80;;;1.00;;
13568;SDS011;6856;51.460;7.158;2023-04-24T14:14:07;2.33;;;1.20;;
13568;SDS011;6856;51.460;7.158;2023-04-24T14:16:41;2.80;;;1.10;;
13568;SDS011;6856;51.460;7.158;2023-04-24T14:19:14;1.53;;;1.10;;
13568;SDS011;6856;51.460;7.158;2023-04-24T14:21:49;2.90;;;1.00;;
13568;SDS011;6856;51.460;7.158;2023-04-24T14:24:24;1.90;;;1.27;;
13568;SDS011;6856;51.460;7.158;2023-04-24T14:26:58;2.97;;;1.10;;
13568;SDS011;6856;51.460;7.158;2023-04-24T14:29:33;1.63;;;1.00;;
13568;SDS011;6856;51.460;7.158;2023-04-24T14:32:06;1.37;;;1.10;;
13568;SDS011;6856;51.460;7.158;2023-04-24T14:34:40;2.33;;;1.00;;
13568;SDS011;6856;51.460;7.158;2023-04-24T14:37:14;2.83;;;1.30;;
13568;SDS011;6856;51.460;7.158;2023-04-24T14:39:49;1.60;;;1.00;;
13568;SDS011;6856;51.460;7.158;2023-04-24T14:42:43;1.80;;;1.10;;
13568;SDS011;6856;51.460;7.158;2023-04-24T14:45:17;1.27;;;0.97;;
13568;SDS011;6856;51.460;7.158;2023-04-24T14:47:52;1.37;;;0.97;;
13568;SDS011;6856;51.460;7.158;2023-04-24T14:50:26;1.80;;;1.00;;
13568;SDS011;6856;51.460;7.158;2023-04-24T14:53:00;2.83;;;1.27;;
13568;SDS011;6856;51.460;7.158;2023-04-24T14:55:35;2.03;;;1.00;;
13568;SDS011;6856;51.460;7.158;2023-04-24T14:58:09;2.60;;;1.40;;
13568;SDS011;6856;51.460;7.158;2023-04-24T15:00:43;1.50;;;1.10;;
13568;SDS011;6856;51.460;7.158;2023-04-24T15:03:18;2.20;;;1.10;;
13568;SDS011;6856;51.460;7.158;2023-04-24T15:05:52;1.73;;;1.10;;
13568;SDS011;6856;51.460;7.158;2023-04-24T15:08:27;1.93;;;1.07;;
13568;SDS011;6856;51.460;7.158;2023-04-24T15:11:03;2.93;;;1.23;;
13568;SDS011;6856;51.460;7.158;2023-04-24T15:13:37;1.90;;;1.30;;
13568;SDS011;6856;51.460;7.158;2023-04-24T15:16:12;3.53;;;1.40;;
13568;SDS011;6856;51.460;7.158;2023-04-24T15:18:47;1.53;;;1.23;;
13568;SDS011;6856;51.460;7.158;2023-04-24T15:21:23;2.27;;;1.20;;
13568;SDS011;6856;51.460;7.158;2023-04-24T15:23:57;2.03;;;1.00;;
13568;SDS011;6856;51.460;7.158;2023-04-24T15:26:32;3.10;;;1.30;;
13568;SDS011;6856;51.460;7.158;2023-04-24T15:29:06;1.90;;;1.50;;
13568;SDS011;6856;51.460;7.158;2023-04-24T15:31:40;3.20;;;1.40;;
13568;SDS011;6856;51.460;7.158;2023-04-24T15:34:14;1.93;;;1.20;;
13568;SDS011;6856;51.460;7.158;2023-04-24T15:36:47;2.57;;;1.30;;
13568;SDS011;6856;51.460;7.158;2023-04-24T15:39:21;1.70;;;1.13;;
13568;SDS011;6856;51.460;7.158;2023-04-24T15:42:00;3.43;;;1.50;;
13568;SDS011;6856;51.460;7.158;2023-04-24T15:44:34;1.70;;;1.30;;
13568;SDS011;6856;51.460;7.158;2023-04-24T15:47:10;3.20;;;1.53;;
13568;SDS011;6856;51.460;7.158;2023-04-24T15:49:45;1.43;;;1.27;;
13568;SDS011;6856;51.460;7.158;2023-04-24T15:52:19;1.43;;;1.03;;
13568;SDS011;6856;51.460;7.158;2023-04-24T15:54:53;3.03;;;1.20;;
13568;SDS011;6856;51.460;7.158;2023-04-24T15:57:28;1.97;;;1.20;;